Terminal Aerodrome Forecast
Issued by NWS

Home | Current Version | Previous Version | Text Only | Print | Product List | Glossary On
Versions: 1 2 3 4 5 6 7 8 9 10 11 12 13
797
FTUS42 KMLB 302320
TAFSUA
TAF
KSUA 302320Z 3100/3124 19008KT P6SM VCSH SCT005 BKN025
      TEMPO 3100/3101 BKN005
     FM310800 18009KT P6SM VCSH FEW020
     FM311200 19011KT P6SM VCSH SCT025 BKN060
     FM311800 21013KT P6SM VCSH SCT030 OVC060
      AMD LTD TO CLD AND WIND 3101/3111=

USA.gov is the U.S. government's official web portal to all federal, state and local government web resources and services.